Данни от 06.03.2021 г. 10:13:00

Температура вътрешна: 19.7 °C
Температура външна: 8.6 °C
Атмосферно налягане: 1005.8 hPa
Атмосферно налягане на морско равнище: 1023.7 hPa
Влажност: 50.3 %



История от последните 24 часа

Дата и часTin [°C]P [hPa]Psl [hPa]H [%]Tout [°C]
   06.03.2021 г. 10:00:00      19.7      1005.5      1023.5      50.4      9.5   
   06.03.2021 г. 09:30:59      19.6      1004.8      1022.7      50.0      10.0   
   06.03.2021 г. 09:00:00      19.7      1004.4      1022.3      50.6      10.3   
   06.03.2021 г. 08:30:00      19.7      1003.5      1021.4      50.9      9.8   
   06.03.2021 г. 08:00:00      19.6      1002.9      1020.8      50.4      10.4   
   06.03.2021 г. 07:30:00      19.7      1002.3      1020.2      50.8      9.0   
   06.03.2021 г. 07:00:00      19.6      1001.8      1019.7      51.6      8.0   
   06.03.2021 г. 06:30:00      19.9      1001.6      1019.4      52.9      8.9   
   06.03.2021 г. 06:00:00      19.9      1001.4      1019.3      52.8      9.0   
   06.03.2021 г. 05:30:00      19.9      1000.9      1018.8      52.6      9.3   
   06.03.2021 г. 05:00:00      20.0      1000.6      1018.5      52.8      9.5   
   06.03.2021 г. 04:30:00      20.0      1000.3      1018.1      52.2      9.4   
   06.03.2021 г. 04:00:00      20.0      1000.1      1018.0      51.9      9.5   
   06.03.2021 г. 03:30:00      19.9      1000.2      1018.0      52.1      9.5   
   06.03.2021 г. 03:00:00      19.9      1000.1      1018.0      51.4      9.4   
   06.03.2021 г. 02:30:00      20.0      1000.0      1017.9      52.1      8.6   
   06.03.2021 г. 02:00:00      20.0      999.8      1017.7      51.7      8.3   
   06.03.2021 г. 01:30:00      20.0      999.7      1017.5      51.8      10.0   
   06.03.2021 г. 01:00:00      20.0      999.3      1017.2      50.8      9.1   
   06.03.2021 г. 00:30:00      20.0      999.3      1017.1      50.2      10.1   
   06.03.2021 г. 00:00:00      19.9      998.7      1016.5      49.9      10.0   
   05.03.2021 г. 23:30:00      19.9      998.8      1016.6      50.1      9.3   
   05.03.2021 г. 23:00:00      20.0      998.7      1016.5      49.8      9.1   
   05.03.2021 г. 22:30:00      20.0      998.4      1016.2      49.7      8.9   
   05.03.2021 г. 21:30:00      20.0      997.8      1015.7      49.2      9.3   
   05.03.2021 г. 21:00:59      19.8      997.5      1015.3      49.3      9.1   
   05.03.2021 г. 20:30:00      20.1      997.1      1014.9      50.6      9.8   
   05.03.2021 г. 20:00:59      20.0      996.8      1014.6      50.0      10.8   
   05.03.2021 г. 20:00:00      20.0      996.8      1014.6      49.7      10.8   
   05.03.2021 г. 19:30:00      19.9      996.7      1014.5      50.3      11.6   
   05.03.2021 г. 18:30:00      20.0      996.0      1013.7      50.2      14.8   
   05.03.2021 г. 18:00:00      20.0      995.5      1013.3      49.4      19.5   
   05.03.2021 г. 17:30:00      20.0      995.2      1012.9      48.8      20.3   
   05.03.2021 г. 17:00:00      20.0      995.0      1012.8      48.9      20.6   
   05.03.2021 г. 16:30:00      20.1      994.9      1012.7      48.4      22.1   
   05.03.2021 г. 16:00:00      20.2      994.9      1012.7      48.5      22.6   
   05.03.2021 г. 15:30:00      20.2      994.9      1012.7      48.5      24.2   
   05.03.2021 г. 15:00:00      20.1      995.0      1012.8      48.9      23.0   
   05.03.2021 г. 14:30:00      20.0      995.2      1012.9      49.2      21.8   
   05.03.2021 г. 14:00:00      19.9      995.3      1013.1      49.1      20.6   
   05.03.2021 г. 13:30:00      19.8      995.7      1013.5      49.7      19.4   
   05.03.2021 г. 13:00:00      19.8      996.1      1013.9      49.1      18.2   
   05.03.2021 г. 12:30:00      19.8      996.5      1014.2      49.6      17.0   
   05.03.2021 г. 12:00:00      19.8      996.8      1014.6      49.0      16.5   
   05.03.2021 г. 11:30:00      19.8      996.9      1014.7      49.4      15.5   
   05.03.2021 г. 11:00:00      19.7      997.2      1015.0      49.2      13.4   
   05.03.2021 г. 10:30:00      19.7      997.4      1015.2      49.0      12.0   
   05.03.2021 г. 10:00:00      19.7      997.6      1015.4      48.9      11.0   

BaroSL graphic

TEMPE graphic